createdAt,value
2018-09-28T00:02:15.534Z,91.10
2018-09-28T00:04:44.314Z,91.30
2018-09-28T00:07:13.008Z,91.50
2018-09-28T00:09:41.801Z,91.80
2018-09-28T00:12:10.541Z,92.00
2018-09-28T00:14:39.289Z,92.00
2018-09-28T00:17:08.057Z,92.00
2018-09-28T00:19:36.921Z,92.10
2018-09-28T00:22:05.611Z,91.80
2018-09-28T00:24:34.365Z,92.00
2018-09-28T00:27:03.131Z,92.00
2018-09-28T00:29:32.101Z,92.00
2018-09-28T00:32:00.824Z,91.80
2018-09-28T00:34:29.612Z,91.90
2018-09-28T00:36:58.331Z,92.30
2018-09-28T00:39:26.983Z,92.40
2018-09-28T00:41:55.681Z,92.20
2018-09-28T00:44:24.392Z,92.10
2018-09-28T00:46:53.133Z,92.00
2018-09-28T00:49:21.831Z,91.90
2018-09-28T00:51:50.680Z,91.90
2018-09-28T00:54:19.394Z,92.00
2018-09-28T00:56:48.079Z,92.00
2018-09-28T00:59:16.779Z,92.00
2018-09-28T01:01:45.449Z,92.00
2018-09-28T01:04:14.180Z,92.10
2018-09-28T01:06:42.926Z,92.10
2018-09-28T01:09:13.770Z,92.20
2018-09-28T01:11:42.471Z,92.30
2018-09-28T01:14:11.186Z,92.40
2018-09-28T01:16:39.910Z,92.40
2018-09-28T01:19:08.676Z,92.60
2018-09-28T01:21:37.399Z,92.60
2018-09-28T01:24:06.294Z,92.40
2018-09-28T01:26:35.042Z,92.40
2018-09-28T01:29:03.899Z,92.30
2018-09-28T01:31:32.575Z,92.30
2018-09-28T01:34:01.279Z,92.30
2018-09-28T01:36:30.088Z,92.00
2018-09-28T01:38:58.809Z,92.10
2018-09-28T01:41:27.494Z,92.00
2018-09-28T01:43:56.150Z,92.00
2018-09-28T01:46:24.955Z,91.90
2018-09-28T01:48:53.675Z,92.00
2018-09-28T01:51:22.423Z,92.10
2018-09-28T01:53:51.101Z,92.10
2018-09-28T01:56:19.809Z,92.10
2018-09-28T01:58:48.518Z,92.10
2018-09-28T02:01:17.170Z,92.10
2018-09-28T02:03:45.855Z,92.30
2018-09-28T02:06:14.669Z,92.20
2018-09-28T02:08:43.352Z,92.30
2018-09-28T02:11:12.039Z,92.20
2018-09-28T02:13:40.726Z,92.20
2018-09-28T02:16:09.934Z,92.20
2018-09-28T02:18:39.497Z,92.30
2018-09-28T02:21:08.239Z,92.30
2018-09-28T02:23:37.120Z,92.40
2018-09-28T02:26:05.883Z,92.40
2018-09-28T02:28:34.570Z,92.30
2018-09-28T02:31:03.264Z,92.50
2018-09-28T02:33:35.838Z,92.60
2018-09-28T02:36:04.565Z,92.60
2018-09-28T02:38:33.282Z,92.80
2018-09-28T02:41:02.110Z,92.90
2018-09-28T02:43:30.848Z,93.00
2018-09-28T02:45:59.570Z,93.10
2018-09-28T02:48:28.379Z,93.20
2018-09-28T02:50:57.019Z,93.50
2018-09-28T02:53:25.687Z,93.40
2018-09-28T02:55:54.479Z,93.30
2018-09-28T02:58:23.141Z,93.50
2018-09-28T03:00:52.042Z,93.60
2018-09-28T03:03:20.783Z,93.90
2018-09-28T03:05:49.455Z,94.10
2018-09-28T03:08:18.158Z,94.20
2018-09-28T03:10:46.868Z,94.00
2018-09-28T03:13:15.621Z,93.90
2018-09-28T03:15:44.424Z,93.80
2018-09-28T03:18:13.186Z,93.80
2018-09-28T03:20:41.863Z,93.70
2018-09-28T03:23:10.634Z,93.70
2018-09-28T03:25:39.314Z,93.80
2018-09-28T03:28:08.055Z,93.80
2018-09-28T03:30:36.754Z,93.80
2018-09-28T03:33:05.492Z,93.80
2018-09-28T03:35:34.231Z,93.80
2018-09-28T03:38:02.966Z,93.90
2018-09-28T03:40:31.680Z,94.00
2018-09-28T03:43:00.439Z,94.20
2018-09-28T03:45:29.109Z,94.30
2018-09-28T03:47:57.884Z,94.20
2018-09-28T03:50:26.650Z,93.90
2018-09-28T03:52:55.358Z,93.70
2018-09-28T03:55:24.040Z,93.70
2018-09-28T03:57:52.755Z,93.80
2018-09-28T04:00:21.787Z,93.90
2018-09-28T04:02:50.555Z,93.90
2018-09-28T04:05:19.249Z,94.00
2018-09-28T04:07:48.003Z,94.30
2018-09-28T04:10:16.675Z,94.10
2018-09-28T04:12:45.333Z,94.10
2018-09-28T04:15:14.223Z,94.00
2018-09-28T04:17:48.549Z,94.10
2018-09-28T04:20:17.266Z,94.10
2018-09-28T04:22:46.050Z,94.10
2018-09-28T04:25:14.877Z,94.00
2018-09-28T04:27:43.666Z,94.30
2018-09-28T04:30:12.433Z,94.40
2018-09-28T04:32:41.170Z,94.50
2018-09-28T04:35:09.947Z,94.60
2018-09-28T04:37:38.640Z,94.70
2018-09-28T04:40:07.439Z,94.80
2018-09-28T04:42:36.269Z,94.70
2018-09-28T04:45:05.273Z,94.70
2018-09-28T04:47:34.015Z,94.60
2018-09-28T04:50:02.771Z,94.40
2018-09-28T04:52:31.475Z,94.30
2018-09-28T04:55:00.238Z,94.40
2018-09-28T04:57:29.316Z,94.40
2018-09-28T04:59:58.103Z,94.50
2018-09-28T05:02:26.787Z,94.60
2018-09-28T05:04:55.497Z,94.70
2018-09-28T05:07:24.168Z,94.90
2018-09-28T05:09:52.886Z,94.80
2018-09-28T05:12:21.733Z,95.00
2018-09-28T05:14:50.457Z,95.10
2018-09-28T05:17:19.226Z,95.30
2018-09-28T05:19:47.991Z,95.40
2018-09-28T05:22:16.715Z,95.60
2018-09-28T05:24:45.369Z,95.60
2018-09-28T05:27:14.075Z,95.50
2018-09-28T05:29:42.882Z,95.40
2018-09-28T05:32:11.718Z,95.40
2018-09-28T05:34:40.514Z,95.50
2018-09-28T05:37:09.322Z,95.50
2018-09-28T05:39:38.055Z,95.40
2018-09-28T05:42:06.899Z,95.40
2018-09-28T05:44:35.599Z,95.40
2018-09-28T05:47:04.303Z,95.20
2018-09-28T05:49:33.141Z,95.20
2018-09-28T05:52:01.851Z,95.20
2018-09-28T05:54:30.625Z,95.10
2018-09-28T05:56:59.323Z,94.90
2018-09-28T05:59:33.218Z,94.70
2018-09-28T06:02:07.242Z,94.70
2018-09-28T06:04:41.136Z,94.70
2018-09-28T06:07:09.899Z,94.80
2018-09-28T06:09:38.611Z,94.70
2018-09-28T06:12:07.339Z,94.60
2018-09-28T06:14:36.126Z,94.50
2018-09-28T06:17:05.174Z,94.40
2018-09-28T06:19:34.008Z,94.30
2018-09-28T06:22:02.743Z,94.20
2018-09-28T06:24:31.458Z,94.20
2018-09-28T06:27:00.223Z,94.10
2018-09-28T06:29:28.967Z,94.20
2018-09-28T06:31:57.753Z,94.10
2018-09-28T06:34:26.540Z,94.00
2018-09-28T06:36:55.258Z,93.40
2018-09-28T06:39:24.001Z,93.00
2018-09-28T06:41:52.830Z,92.50
2018-09-28T06:44:21.483Z,92.10
2018-09-28T06:46:50.186Z,91.20
2018-09-28T06:49:18.860Z,90.10
2018-09-28T06:51:47.615Z,90.20
2018-09-28T06:54:16.411Z,90.50
2018-09-28T06:56:45.143Z,90.70
2018-09-28T06:59:13.922Z,90.90
2018-09-28T07:01:42.662Z,90.60
2018-09-28T07:04:11.443Z,91.10
2018-09-28T07:06:40.206Z,90.90
2018-09-28T07:09:11.018Z,90.40
2018-09-28T07:11:39.712Z,90.10
2018-09-28T07:14:08.822Z,89.80
2018-09-28T07:16:37.965Z,89.40
2018-09-28T07:19:06.930Z,88.70
2018-09-28T07:21:35.778Z,88.30
2018-09-28T07:24:04.615Z,88.40
2018-09-28T07:26:33.379Z,88.00
2018-09-28T07:29:02.126Z,87.60
2018-09-28T07:31:30.895Z,87.30
2018-09-28T07:33:59.692Z,87.80
2018-09-28T07:36:28.566Z,87.40
2018-09-28T07:38:57.261Z,86.90
2018-09-28T07:41:26.040Z,86.70
2018-09-28T07:43:54.777Z,85.60
2018-09-28T07:46:23.524Z,85.00
2018-09-28T07:48:52.166Z,84.50
2018-09-28T07:51:20.886Z,83.50
2018-09-28T07:53:49.594Z,82.90
2018-09-28T07:56:18.356Z,82.50
2018-09-28T07:58:47.090Z,82.00
2018-09-28T08:01:15.874Z,81.70
2018-09-28T08:03:44.619Z,80.60
2018-09-28T08:06:13.435Z,80.90
2018-09-28T08:08:43.742Z,79.90
2018-09-28T08:11:13.548Z,79.30
2018-09-28T08:13:43.399Z,79.50
2018-09-28T08:16:13.816Z,78.80
2018-09-28T08:18:43.786Z,77.10
2018-09-28T08:21:12.772Z,76.80
2018-09-28T08:23:41.481Z,76.90
2018-09-28T08:26:10.181Z,76.90
2018-09-28T08:28:38.866Z,76.00
2018-09-28T08:31:07.540Z,74.90
2018-09-28T08:33:36.416Z,74.60
2018-09-28T08:36:05.100Z,74.10
2018-09-28T08:38:33.857Z,72.90
2018-09-28T08:41:02.612Z,71.90
2018-09-28T08:43:31.314Z,71.50
2018-09-28T08:46:00.102Z,69.40
2018-09-28T08:48:28.830Z,70.00
2018-09-28T08:50:57.526Z,68.90
2018-09-28T08:53:26.277Z,68.80
2018-09-28T08:55:54.887Z,67.60
2018-09-28T08:58:23.586Z,66.70
2018-09-28T09:00:52.268Z,67.70
2018-09-28T09:03:20.987Z,64.80
2018-09-28T09:05:49.686Z,63.80
2018-09-28T09:08:18.430Z,64.10
2018-09-28T09:10:47.179Z,65.60
2018-09-28T09:13:15.907Z,64.30
2018-09-28T09:15:44.635Z,66.40
2018-09-28T09:18:13.464Z,64.30
2018-09-28T09:20:42.047Z,64.50
2018-09-28T09:23:10.813Z,63.70
2018-09-28T09:25:39.569Z,64.80
2018-09-28T09:28:08.327Z,65.70
2018-09-28T09:30:37.100Z,65.80
2018-09-28T09:33:05.870Z,63.80
2018-09-28T09:35:34.632Z,64.10
2018-09-28T09:38:03.414Z,65.30
2018-09-28T09:40:32.109Z,64.60
2018-09-28T09:43:00.823Z,63.50
2018-09-28T09:45:29.506Z,62.10
2018-09-28T09:47:58.212Z,63.00
2018-09-28T09:50:26.883Z,62.80
2018-09-28T09:52:55.634Z,61.70
2018-09-28T09:55:24.459Z,61.30
2018-09-28T09:57:53.319Z,58.70
2018-09-28T10:00:27.149Z,60.00
2018-09-28T10:03:06.858Z,61.60
2018-09-28T10:05:36.610Z,59.30
2018-09-28T10:08:05.378Z,60.30
2018-09-28T10:10:34.050Z,60.20
2018-09-28T10:13:02.776Z,60.60
2018-09-28T10:15:31.454Z,57.90
2018-09-28T10:18:00.170Z,60.60
2018-09-28T10:20:28.930Z,57.40
2018-09-28T10:22:57.551Z,59.20
2018-09-28T10:25:26.370Z,61.30
2018-09-28T10:27:55.187Z,61.20
2018-09-28T10:30:23.872Z,60.10
2018-09-28T10:32:52.662Z,59.80
2018-09-28T10:35:21.459Z,56.30
2018-09-28T10:37:50.163Z,57.40
2018-09-28T10:40:18.945Z,60.00
2018-09-28T10:42:47.564Z,60.00
2018-09-28T10:45:16.410Z,59.30
2018-09-28T10:47:45.080Z,57.30
2018-09-28T10:50:13.719Z,58.70
2018-09-28T10:52:42.486Z,60.60
2018-09-28T10:55:11.093Z,61.30
2018-09-28T10:57:39.812Z,59.00
2018-09-28T11:00:08.527Z,58.80
2018-09-28T11:02:37.258Z,60.00
2018-09-28T11:05:06.066Z,60.30
2018-09-28T11:07:34.714Z,59.90
2018-09-28T11:10:03.534Z,59.90
2018-09-28T11:12:32.202Z,60.70
2018-09-28T11:15:00.882Z,59.90
2018-09-28T11:17:29.594Z,58.70
2018-09-28T11:19:58.445Z,58.50
2018-09-28T11:22:27.142Z,58.90
2018-09-28T11:24:55.870Z,56.30
2018-09-28T11:27:24.668Z,58.90
2018-09-28T11:29:53.388Z,57.00
2018-09-28T11:32:22.117Z,57.50
2018-09-28T11:34:50.827Z,56.80
2018-09-28T11:37:20.514Z,58.00
2018-09-28T11:39:49.325Z,58.70
2018-09-28T11:42:18.018Z,56.90
2018-09-28T11:44:46.811Z,55.40
2018-09-28T11:47:15.526Z,56.50
2018-09-28T11:49:44.225Z,57.40
2018-09-28T11:52:12.890Z,56.60
2018-09-28T11:54:41.591Z,56.10
2018-09-28T11:57:10.281Z,54.60
2018-09-28T11:59:38.959Z,53.40
2018-09-28T12:02:07.807Z,52.20
2018-09-28T12:04:36.643Z,52.00
2018-09-28T12:07:05.524Z,52.70
2018-09-28T12:09:34.314Z,51.20
2018-09-28T12:12:03.114Z,51.50
2018-09-28T12:14:31.838Z,52.60
2018-09-28T12:17:00.619Z,49.20
2018-09-28T12:19:29.346Z,50.80
2018-09-28T12:21:58.098Z,52.60
2018-09-28T12:24:26.825Z,53.60
2018-09-28T12:26:55.522Z,51.00
2018-09-28T12:29:24.270Z,50.80
2018-09-28T12:31:52.999Z,50.70
2018-09-28T12:34:21.667Z,48.80
2018-09-28T12:36:50.569Z,49.80
2018-09-28T12:39:19.330Z,51.50
2018-09-28T12:41:48.531Z,50.60
2018-09-28T12:44:19.818Z,51.90
2018-09-28T12:46:49.883Z,50.40
2018-09-28T12:49:18.574Z,49.60
2018-09-28T12:51:47.246Z,48.80
2018-09-28T12:54:15.993Z,49.20
2018-09-28T12:56:44.805Z,51.20
2018-09-28T12:59:13.538Z,50.70
2018-09-28T13:01:42.376Z,50.20
2018-09-28T13:04:17.078Z,50.40
2018-09-28T13:06:47.106Z,47.00
2018-09-28T13:09:15.732Z,46.90
2018-09-28T13:11:45.857Z,47.80
2018-09-28T13:14:14.779Z,47.60
2018-09-28T13:16:43.621Z,49.70
2018-09-28T13:19:12.365Z,48.20
2018-09-28T13:21:42.264Z,47.70
2018-09-28T13:24:10.920Z,46.50
2018-09-28T13:26:39.800Z,47.80
2018-09-28T13:29:08.483Z,49.60
2018-09-28T13:31:37.455Z,48.60
2018-09-28T13:34:06.311Z,46.20
2018-09-28T13:36:35.103Z,46.50
2018-09-28T13:39:05.150Z,45.80
2018-09-28T13:41:33.919Z,45.30
2018-09-28T13:44:03.164Z,45.60
2018-09-28T13:46:32.297Z,46.10
2018-09-28T13:49:01.070Z,46.50
2018-09-28T13:51:29.891Z,47.20
2018-09-28T13:53:58.644Z,45.50
2018-09-28T13:56:27.599Z,43.70
2018-09-28T13:58:56.279Z,43.40
2018-09-28T14:01:25.174Z,42.80
2018-09-28T14:03:53.863Z,43.20
2018-09-28T14:06:22.605Z,42.20
2018-09-28T14:08:53.070Z,40.50
2018-09-28T14:11:21.894Z,40.40
2018-09-28T14:13:51.084Z,42.20
2018-09-28T14:16:20.492Z,42.60
2018-09-28T14:18:49.537Z,41.70
2018-09-28T14:21:19.684Z,42.00
2018-09-28T14:23:49.532Z,41.30
2018-09-28T14:26:18.408Z,38.90
2018-09-28T14:28:47.654Z,38.40
2018-09-28T14:31:16.434Z,38.70
2018-09-28T14:33:45.129Z,38.90
2018-09-28T14:36:13.916Z,39.80
2018-09-28T14:38:42.660Z,41.80
2018-09-28T14:41:11.474Z,40.50
2018-09-28T14:43:40.461Z,40.50
2018-09-28T14:46:09.355Z,39.90
2018-09-28T14:48:38.207Z,40.50
2018-09-28T14:51:07.445Z,40.60
2018-09-28T14:53:36.258Z,42.60
2018-09-28T14:56:04.942Z,41.00
2018-09-28T14:58:33.721Z,41.20
2018-09-28T15:01:02.559Z,42.90
2018-09-28T15:03:31.193Z,43.00
2018-09-28T15:05:59.997Z,41.80
2018-09-28T15:08:28.842Z,40.10
2018-09-28T15:10:57.971Z,39.60
2018-09-28T15:13:26.770Z,40.70
2018-09-28T15:15:55.473Z,42.30
2018-09-28T15:18:24.390Z,42.80
2018-09-28T15:20:53.320Z,42.00
2018-09-28T15:23:22.098Z,41.60
2018-09-28T15:25:50.823Z,41.80
2018-09-28T15:28:19.537Z,43.80
2018-09-28T15:30:48.270Z,45.00
2018-09-28T15:33:17.385Z,46.00
2018-09-28T15:35:46.630Z,47.10
2018-09-28T15:38:15.439Z,47.40
2018-09-28T15:40:44.192Z,47.90
2018-09-28T15:43:12.917Z,48.40
2018-09-28T15:45:42.476Z,46.90
2018-09-28T15:48:12.344Z,47.10
2018-09-28T15:50:41.106Z,48.50
2018-09-28T15:53:09.914Z,47.30
2018-09-28T15:55:38.682Z,47.70
2018-09-28T15:58:07.551Z,48.80
2018-09-28T16:00:36.359Z,48.40
2018-09-28T16:03:05.095Z,49.00
2018-09-28T16:05:33.826Z,49.70
2018-09-28T16:08:02.612Z,50.30
2018-09-28T16:10:33.302Z,51.30
2018-09-28T16:13:02.208Z,52.00
2018-09-28T16:15:31.152Z,52.40
2018-09-28T16:17:59.898Z,52.70
2018-09-28T16:20:28.621Z,53.10
2018-09-28T16:22:57.343Z,53.20
2018-09-28T16:25:26.172Z,53.40
2018-09-28T16:27:55.252Z,53.90
2018-09-28T16:30:24.038Z,53.90
2018-09-28T16:32:53.145Z,54.30
2018-09-28T16:35:21.818Z,54.80
2018-09-28T16:37:50.542Z,55.50
2018-09-28T16:40:19.303Z,55.70
2018-09-28T16:42:48.059Z,55.20
2018-09-28T16:45:16.844Z,55.10
2018-09-28T16:47:45.567Z,55.70
2018-09-28T16:50:14.302Z,56.30
2018-09-28T16:52:43.019Z,56.60
2018-09-28T16:55:11.790Z,57.20
2018-09-28T16:57:40.477Z,57.50
2018-09-28T17:00:09.267Z,57.90
2018-09-28T17:02:37.962Z,58.40
2018-09-28T17:05:06.690Z,58.70
2018-09-28T17:07:35.399Z,60.10
2018-09-28T17:10:04.224Z,60.50
2018-09-28T17:12:33.034Z,61.70
2018-09-28T17:15:01.779Z,62.60
2018-09-28T17:17:30.530Z,63.50
2018-09-28T17:19:59.351Z,64.00
2018-09-28T17:22:28.172Z,65.20
2018-09-28T17:24:56.912Z,66.80
2018-09-28T17:27:25.622Z,68.30
2018-09-28T17:29:54.411Z,71.00
2018-09-28T17:32:23.122Z,71.50
2018-09-28T17:34:51.895Z,72.80
2018-09-28T17:37:20.550Z,73.90
2018-09-28T17:39:49.361Z,74.50
2018-09-28T17:42:18.106Z,75.10
2018-09-28T17:44:46.867Z,75.40
2018-09-28T17:47:15.549Z,75.50
2018-09-28T17:49:44.250Z,75.90
2018-09-28T17:52:12.938Z,76.20
2018-09-28T17:54:41.639Z,76.30
2018-09-28T17:57:10.362Z,76.60
2018-09-28T17:59:39.170Z,76.60
2018-09-28T18:02:07.859Z,76.70
2018-09-28T18:04:36.703Z,77.00
2018-09-28T18:07:05.432Z,77.10
2018-09-28T18:09:34.266Z,77.10
2018-09-28T18:12:03.030Z,77.20
2018-09-28T18:14:31.782Z,77.40
2018-09-28T18:17:00.622Z,77.60
2018-09-28T18:19:29.402Z,77.70
2018-09-28T18:21:58.135Z,77.80
2018-09-28T18:24:26.815Z,77.90
2018-09-28T18:26:55.547Z,78.10
2018-09-28T18:29:24.243Z,78.10
2018-09-28T18:31:52.972Z,78.60
2018-09-28T18:34:21.709Z,78.70
2018-09-28T18:36:50.469Z,78.80
2018-09-28T18:39:19.161Z,78.90
2018-09-28T18:41:47.931Z,79.10
2018-09-28T18:44:16.658Z,78.80
2018-09-28T18:46:45.367Z,79.10
2018-09-28T18:49:14.066Z,79.40
2018-09-28T18:51:42.790Z,80.30
2018-09-28T18:54:11.638Z,80.80
2018-09-28T18:56:40.651Z,81.30
2018-09-28T18:59:09.319Z,81.70
2018-09-28T19:01:38.031Z,82.40
2018-09-28T19:04:06.815Z,82.80
2018-09-28T19:06:35.544Z,83.40
2018-09-28T19:09:06.102Z,83.20
2018-09-28T19:11:34.798Z,83.90
2018-09-28T19:14:03.530Z,83.80
2018-09-28T19:16:32.340Z,84.30
2018-09-28T19:19:01.036Z,84.80
2018-09-28T19:21:29.833Z,85.20
2018-09-28T19:23:58.578Z,85.60
2018-09-28T19:26:27.351Z,85.70
2018-09-28T19:28:56.065Z,85.70
2018-09-28T19:31:24.886Z,86.20
2018-09-28T19:33:53.642Z,85.90
2018-09-28T19:36:22.620Z,86.00
2018-09-28T19:38:51.573Z,86.20
2018-09-28T19:41:20.334Z,86.30
2018-09-28T19:43:49.312Z,86.60
2018-09-28T19:46:18.098Z,86.80
2018-09-28T19:48:47.179Z,87.20
2018-09-28T19:51:15.927Z,87.10
2018-09-28T19:53:44.599Z,87.00
2018-09-28T19:56:13.434Z,87.20
2018-09-28T19:58:42.147Z,87.30
2018-09-28T20:01:10.863Z,87.90
2018-09-28T20:03:39.566Z,87.70
2018-09-28T20:06:08.354Z,87.80
2018-09-28T20:08:37.082Z,87.60
2018-09-28T20:11:06.002Z,87.80
2018-09-28T20:13:34.730Z,87.80
2018-09-28T20:16:03.463Z,87.80
2018-09-28T20:18:32.252Z,87.70
2018-09-28T20:21:01.229Z,87.40
2018-09-28T20:23:30.074Z,87.70
2018-09-28T20:25:58.825Z,87.60
2018-09-28T20:28:28.003Z,87.40
2018-09-28T20:30:56.708Z,87.40
2018-09-28T20:33:25.425Z,87.30
2018-09-28T20:35:54.165Z,87.60
2018-09-28T20:38:23.049Z,87.60
2018-09-28T20:40:51.864Z,87.60
2018-09-28T20:43:21.018Z,87.60
2018-09-28T20:45:49.838Z,87.30
2018-09-28T20:48:18.695Z,87.20
2018-09-28T20:50:48.491Z,87.30
2018-09-28T20:53:17.296Z,87.20
2018-09-28T20:55:46.936Z,87.20
2018-09-28T20:58:16.493Z,87.10
2018-09-28T21:00:45.255Z,87.00
2018-09-28T21:03:14.066Z,87.00
2018-09-28T21:05:43.189Z,86.70
2018-09-28T21:08:12.375Z,86.80
2018-09-28T21:10:41.699Z,87.20
2018-09-28T21:13:10.897Z,87.00
2018-09-28T21:15:39.878Z,87.00
2018-09-28T21:18:08.759Z,86.80
2018-09-28T21:20:37.530Z,86.80
2018-09-28T21:23:06.369Z,86.70
2018-09-28T21:25:35.150Z,86.70
2018-09-28T21:28:04.018Z,86.80
2018-09-28T21:30:32.892Z,86.50
2018-09-28T21:33:01.676Z,86.60
2018-09-28T21:35:30.490Z,86.70
2018-09-28T21:37:59.252Z,86.80
2018-09-28T21:40:27.939Z,87.00
2018-09-28T21:42:56.753Z,86.90
2018-09-28T21:45:25.454Z,86.80
2018-09-28T21:47:54.223Z,86.70
2018-09-28T21:50:22.955Z,86.70
2018-09-28T21:52:51.743Z,86.60
2018-09-28T21:55:20.407Z,86.50
2018-09-28T21:57:49.161Z,86.40
2018-09-28T22:00:17.902Z,86.30
2018-09-28T22:02:46.933Z,86.30
2018-09-28T22:05:15.825Z,86.00
2018-09-28T22:07:44.506Z,86.20
2018-09-28T22:10:13.202Z,86.00
2018-09-28T22:12:42.018Z,85.90
2018-09-28T22:15:10.796Z,85.50
2018-09-28T22:17:39.524Z,84.20
2018-09-28T22:20:08.311Z,83.90
2018-09-28T22:22:37.063Z,83.70
2018-09-28T22:25:05.883Z,83.40
2018-09-28T22:27:34.571Z,82.90
2018-09-28T22:30:03.363Z,82.60
2018-09-28T22:32:32.035Z,81.40
2018-09-28T22:35:00.815Z,81.30
2018-09-28T22:37:29.511Z,80.50
2018-09-28T22:39:58.326Z,80.20
2018-09-28T22:42:27.062Z,80.10
2018-09-28T22:44:55.799Z,79.40
2018-09-28T22:47:24.539Z,78.60
2018-09-28T22:49:53.319Z,78.50
2018-09-28T22:52:21.998Z,78.10
2018-09-28T22:54:50.837Z,78.10
2018-09-28T22:57:19.489Z,77.70
2018-09-28T22:59:48.165Z,77.10
2018-09-28T23:02:16.808Z,77.10
2018-09-28T23:04:45.501Z,76.90
2018-09-28T23:07:14.203Z,76.80
2018-09-28T23:09:43.046Z,76.70
2018-09-28T23:12:11.722Z,76.60
2018-09-28T23:14:40.480Z,76.70
2018-09-28T23:17:09.237Z,76.00
2018-09-28T23:19:38.006Z,76.40
2018-09-28T23:22:06.783Z,76.70
2018-09-28T23:24:35.487Z,76.70
2018-09-28T23:27:04.143Z,76.50
2018-09-28T23:29:32.834Z,75.90
2018-09-28T23:32:01.574Z,75.70
2018-09-28T23:34:30.318Z,75.90
2018-09-28T23:36:58.938Z,76.00
2018-09-28T23:39:27.590Z,75.90
2018-09-28T23:41:56.286Z,75.80
2018-09-28T23:44:24.977Z,75.50
2018-09-28T23:46:53.679Z,75.70
2018-09-28T23:49:22.678Z,75.70
2018-09-28T23:51:51.771Z,75.50
2018-09-28T23:54:20.458Z,75.80
2018-09-28T23:56:49.224Z,75.80
2018-09-28T23:59:17.924Z,75.40
